createdAt,value
2023-01-17T00:02:39.378Z,94188.47
2023-01-17T00:07:59.915Z,94212.34
2023-01-17T00:13:03.662Z,94206.88
2023-01-17T00:18:05.655Z,94219.06
2023-01-17T00:23:27.170Z,94181.03
2023-01-17T00:28:32.534Z,94196.69
2023-01-17T00:33:34.965Z,94194.19
2023-01-17T00:38:38.423Z,94195.91
2023-01-17T00:44:00.488Z,94200.59
2023-01-17T00:49:21.253Z,94185.47
2023-01-17T00:54:42.193Z,94185.94
2023-01-17T01:00:04.196Z,94178.91
2023-01-17T01:05:25.611Z,94179.97
2023-01-17T01:10:46.350Z,94177.19
2023-01-17T01:16:08.360Z,94176.44
2023-01-17T01:21:29.159Z,94189.84
2023-01-17T01:26:49.815Z,94170.00
2023-01-17T01:32:11.588Z,94165.50
2023-01-17T01:37:13.531Z,94159.53
2023-01-17T01:42:15.994Z,94180.38
2023-01-17T01:47:24.023Z,94182.81
2023-01-17T01:52:30.051Z,94182.34
2023-01-17T01:57:37.901Z,94178.41
2023-01-17T02:02:44.066Z,94195.53
2023-01-17T02:07:50.901Z,94189.13
2023-01-17T02:12:55.801Z,94188.59
2023-01-17T02:18:09.942Z,94178.66
2023-01-17T02:23:38.165Z,94179.66
2023-01-17T02:28:57.322Z,94199.75
2023-01-17T02:34:06.259Z,94196.69
2023-01-17T02:39:14.942Z,94188.78
2023-01-17T02:44:19.489Z,94206.63
2023-01-17T02:49:26.980Z,94191.28
2023-01-17T02:54:54.960Z,94201.09
2023-01-17T03:00:06.476Z,94221.69
2023-01-17T03:05:14.859Z,94223.44
2023-01-17T03:10:19.080Z,94222.22
2023-01-17T03:15:21.195Z,94223.88
2023-01-17T03:20:24.449Z,94228.28
2023-01-17T03:25:27.171Z,94226.88
2023-01-17T03:30:29.133Z,94231.84
2023-01-17T03:35:32.456Z,94242.53
2023-01-17T03:40:34.403Z,94249.78
2023-01-17T03:45:36.398Z,94237.38
2023-01-17T03:50:39.734Z,94246.59
2023-01-17T03:55:41.703Z,94233.75
2023-01-17T04:00:43.655Z,94217.91
2023-01-17T04:05:47.009Z,94215.00
2023-01-17T04:10:48.963Z,94217.25
2023-01-17T04:15:51.253Z,94211.03
2023-01-17T04:20:54.526Z,94223.97
2023-01-17T04:25:56.459Z,94215.78
2023-01-17T04:30:59.251Z,94221.00
2023-01-17T04:36:02.570Z,94218.25
2023-01-17T04:41:04.862Z,94225.22
2023-01-17T04:46:10.074Z,94220.00
2023-01-17T04:51:14.082Z,94205.63
2023-01-17T04:56:16.102Z,94224.75
2023-01-17T05:01:18.231Z,94214.34
2023-01-17T05:06:21.598Z,94219.28
2023-01-17T05:11:23.592Z,94206.88
2023-01-17T05:16:25.882Z,94209.84
2023-01-17T05:21:30.490Z,94203.88
2023-01-17T05:26:32.443Z,94202.88
2023-01-17T05:31:34.375Z,94197.94
2023-01-17T05:36:37.681Z,94206.88
2023-01-17T05:41:39.820Z,94215.81
2023-01-17T05:46:42.112Z,94222.78
2023-01-17T05:51:45.376Z,94231.97
2023-01-17T05:56:47.391Z,94245.16
2023-01-17T06:01:49.318Z,94269.75
2023-01-17T06:06:52.657Z,94262.53
2023-01-17T06:11:54.597Z,94268.75
2023-01-17T06:16:56.540Z,94280.41
2023-01-17T06:21:59.896Z,94285.63
2023-01-17T06:27:02.145Z,94274.47
2023-01-17T06:32:04.571Z,94268.50
2023-01-17T06:37:08.239Z,94275.19
2023-01-17T06:42:10.274Z,94284.13
2023-01-17T06:47:12.277Z,94273.69
2023-01-17T06:52:15.600Z,94272.22
2023-01-17T06:57:17.531Z,94287.59
2023-01-17T07:02:19.751Z,94288.84
2023-01-17T07:07:23.184Z,94300.75
2023-01-17T07:12:25.140Z,94310.72
2023-01-17T07:17:27.187Z,94325.66
2023-01-17T07:22:30.609Z,94339.06
2023-01-17T07:27:33.540Z,94355.47
2023-01-17T07:32:35.678Z,94358.97
2023-01-17T07:37:39.083Z,94364.19
2023-01-17T07:42:41.023Z,94360.19
2023-01-17T07:47:43.796Z,94363.94
2023-01-17T07:52:50.381Z,94362.97
2023-01-17T07:57:52.353Z,94358.19
2023-01-17T08:02:56.300Z,94367.22
2023-01-17T08:07:59.705Z,94368.94
2023-01-17T08:13:01.732Z,94373.16
2023-01-17T08:18:03.755Z,94379.91
2023-01-17T08:23:07.031Z,94375.66
2023-01-17T08:28:09.028Z,94378.41
2023-01-17T08:33:11.091Z,94377.41
2023-01-17T08:38:14.399Z,94379.41
2023-01-17T08:43:16.736Z,94389.88
2023-01-17T08:48:18.832Z,94383.16
2023-01-17T08:53:23.261Z,94399.84
2023-01-17T08:58:26.469Z,94403.31
2023-01-17T09:03:28.437Z,94395.88
2023-01-17T09:08:32.247Z,94406.31
2023-01-17T09:13:34.246Z,94410.78
2023-01-17T09:18:37.075Z,94422.75
2023-01-17T09:23:40.990Z,94423.25
2023-01-17T09:28:43.086Z,94423.25
2023-01-17T09:33:45.038Z,94429.22
2023-01-17T09:38:48.428Z,94422.50
2023-01-17T09:43:54.417Z,94433.69
2023-01-17T09:49:03.724Z,94441.66
2023-01-17T09:54:20.374Z,94437.44
2023-01-17T09:59:35.333Z,94441.66
2023-01-17T10:04:52.327Z,94438.16
2023-01-17T10:10:16.622Z,94434.16
2023-01-17T10:15:34.727Z,94438.16
2023-01-17T10:20:45.555Z,94439.16
2023-01-17T10:25:50.350Z,94431.34
2023-01-17T10:30:57.982Z,94439.28
2023-01-17T10:36:05.994Z,94452.09
2023-01-17T10:41:15.273Z,94455.53
2023-01-17T10:46:22.565Z,94452.09
2023-01-17T10:51:49.761Z,94459.56
2023-01-17T10:56:53.082Z,94458.81
2023-01-17T11:01:55.146Z,94467.75
2023-01-17T11:07:12.570Z,94461.44
2023-01-17T11:12:24.578Z,94451.19
2023-01-17T11:17:27.855Z,94460.34
2023-01-17T11:22:29.996Z,94460.63
2023-01-17T11:27:35.275Z,94450.16
2023-01-17T11:32:37.293Z,94448.44
2023-01-17T11:37:48.600Z,94418.97
2023-01-17T11:43:01.656Z,94445.69
2023-01-17T11:48:12.325Z,94443.22
2023-01-17T11:53:19.554Z,94438.69
2023-01-17T11:58:24.099Z,94433.06
2023-01-17T12:03:50.246Z,94434.59
2023-01-17T12:09:07.988Z,94421.34
2023-01-17T12:14:21.811Z,94411.41
2023-01-17T12:19:38.852Z,94410.44
2023-01-17T12:24:56.854Z,94420.66
2023-01-17T12:30:18.895Z,94423.69
2023-01-17T12:35:27.950Z,94417.72
2023-01-17T12:40:32.851Z,94418.72
2023-01-17T12:45:42.539Z,94419.75
2023-01-17T12:50:51.882Z,94421.47
2023-01-17T12:56:00.332Z,94418.75
2023-01-17T13:01:12.434Z,94441.41
2023-01-17T13:06:22.389Z,94436.94
2023-01-17T13:11:28.258Z,94446.66
2023-01-17T13:16:37.739Z,94437.94
2023-01-17T13:21:40.944Z,94449.88
2023-01-17T13:26:57.394Z,94444.88
2023-01-17T13:32:14.994Z,94455.47
2023-01-17T13:37:42.206Z,94467.31
2023-01-17T13:42:54.018Z,94461.91
2023-01-17T13:48:31.681Z,94460.41
2023-01-17T13:53:54.966Z,94478.78
2023-01-17T13:59:05.484Z,94489.63
2023-01-17T14:04:09.943Z,94483.56
2023-01-17T14:09:18.483Z,94486.25
2023-01-17T14:14:47.716Z,94501.78
2023-01-17T14:19:53.060Z,94504.56
2023-01-17T14:25:01.586Z,94523.25
2023-01-17T14:30:06.995Z,94515.50
2023-01-17T14:35:21.831Z,94512.13
2023-01-17T14:40:26.503Z,94528.19
2023-01-17T14:45:30.608Z,94547.31
2023-01-17T14:50:38.305Z,94545.94
2023-01-17T14:55:49.976Z,94537.25
2023-01-17T15:00:56.069Z,94545.50
2023-01-17T15:06:10.673Z,94537.06
2023-01-17T15:11:18.195Z,94538.53
2023-01-17T15:16:23.458Z,94532.28
2023-01-17T15:21:29.578Z,94544.88
2023-01-17T15:26:34.491Z,94528.72
2023-01-17T15:31:42.140Z,94538.66
2023-01-17T15:36:48.730Z,94523.69
2023-01-17T15:41:52.196Z,94521.44
2023-01-17T15:46:55.083Z,94519.19
2023-01-17T15:52:15.001Z,94524.19
2023-01-17T15:57:24.248Z,94518.50
2023-01-17T16:02:42.914Z,94503.00
2023-01-17T16:07:48.152Z,94510.97
2023-01-17T16:12:52.819Z,94494.16
2023-01-17T16:17:57.452Z,94496.03
2023-01-17T16:23:00.801Z,94494.69
2023-01-17T16:28:03.494Z,94491.75
2023-01-17T16:33:05.650Z,94487.91
2023-01-17T16:38:15.899Z,94490.75
2023-01-17T16:43:19.775Z,94481.91
2023-01-17T16:48:21.776Z,94476.53
2023-01-17T16:53:28.441Z,94458.81
2023-01-17T16:58:32.196Z,94450.72
2023-01-17T17:03:35.359Z,94444.25
2023-01-17T17:08:39.729Z,94444.19
2023-01-17T17:13:43.292Z,94452.44
2023-01-17T17:18:47.133Z,94442.78
2023-01-17T17:23:56.712Z,94435.78
2023-01-17T17:28:58.829Z,94420.47
2023-01-17T17:34:02.022Z,94437.94
2023-01-17T17:39:09.218Z,94448.94
2023-01-17T17:44:12.050Z,94460.84
2023-01-17T17:49:16.850Z,94484.97
2023-01-17T17:54:20.519Z,94510.69
2023-01-17T17:59:23.890Z,94494.66
2023-01-17T18:04:26.242Z,94474.31
2023-01-17T18:09:29.764Z,94468.41
2023-01-17T18:14:32.283Z,94467.34
2023-01-17T18:19:34.352Z,94461.00
2023-01-17T18:24:37.939Z,94460.34
2023-01-17T18:29:39.965Z,94453.56
2023-01-17T18:34:42.339Z,94457.88
2023-01-17T18:39:45.742Z,94463.31
2023-01-17T18:44:47.898Z,94448.66
2023-01-17T18:49:53.709Z,94441.50
2023-01-17T18:54:57.143Z,94447.91
2023-01-17T18:59:59.214Z,94456.38
2023-01-17T19:05:05.432Z,94463.47
2023-01-17T19:10:09.971Z,94459.66
2023-01-17T19:15:11.919Z,94451.19
2023-01-17T19:20:14.077Z,94459.22
2023-01-17T19:25:17.520Z,94475.25
2023-01-17T19:30:20.830Z,94472.66
2023-01-17T19:35:23.077Z,94469.59
2023-01-17T19:40:26.903Z,94471.84
2023-01-17T19:45:29.194Z,94465.22
2023-01-17T19:50:31.291Z,94447.03
2023-01-17T19:55:38.879Z,94442.47
2023-01-17T20:00:46.544Z,94429.19
2023-01-17T20:05:55.748Z,94422.22
2023-01-17T20:11:02.262Z,94402.56
2023-01-17T20:16:06.461Z,94394.25
2023-01-17T20:21:10.244Z,94374.44
2023-01-17T20:26:13.849Z,94373.91
2023-01-17T20:31:18.288Z,94370.22
2023-01-17T20:36:22.612Z,94373.69
2023-01-17T20:41:30.094Z,94369.97
2023-01-17T20:46:35.519Z,94374.13
2023-01-17T20:51:38.426Z,94376.03
2023-01-17T20:56:42.695Z,94367.78
2023-01-17T21:01:45.147Z,94363.47
2023-01-17T21:06:47.469Z,94355.09
2023-01-17T21:11:51.799Z,94365.47
2023-01-17T21:16:53.898Z,94373.03
2023-01-17T21:21:57.223Z,94358.16
2023-01-17T21:27:00.578Z,94354.19
2023-01-17T21:32:02.582Z,94352.50
2023-01-17T21:37:04.586Z,94358.72
2023-01-17T21:42:08.378Z,94355.47
2023-01-17T21:47:10.360Z,94349.03
2023-01-17T21:52:12.357Z,94352.22
2023-01-17T21:57:36.565Z,94335.81
2023-01-17T22:02:39.741Z,94329.09
2023-01-17T22:08:03.410Z,94339.28
2023-01-17T22:13:06.724Z,94335.28
2023-01-17T22:18:09.607Z,94343.59
2023-01-17T22:23:11.954Z,94326.00
2023-01-17T22:28:15.330Z,94314.00
2023-01-17T22:33:17.290Z,94313.53
2023-01-17T22:38:19.224Z,94296.88
2023-01-17T22:43:22.506Z,94298.13
2023-01-17T22:48:24.541Z,94278.34
2023-01-17T22:53:26.705Z,94274.75
2023-01-17T22:58:31.161Z,94255.94
2023-01-17T23:03:33.520Z,94252.94
2023-01-17T23:08:36.028Z,94253.47
2023-01-17T23:13:39.312Z,94247.94
2023-01-17T23:18:59.513Z,94250.31
2023-01-17T23:24:02.581Z,94240.75
2023-01-17T23:29:05.905Z,94237.13
2023-01-17T23:34:07.861Z,94228.94
2023-01-17T23:39:10.249Z,94224.19
2023-01-17T23:44:13.874Z,94211.88
2023-01-17T23:49:15.918Z,94202.47
2023-01-17T23:54:17.850Z,94194.22
2023-01-17T23:59:21.217Z,94196.47
